Hardenville, Missouri
Current Conditions -  °F | °C
As of 4:53 AM on Friday 28 Nov 2014 (Local Time) from KBPK Reporting Station
Clear Clear  
Wind Chill: -4°   Ceiling: Unl
Heat Index: -1°   Visibility: 8mi
Dew Point: -4°   Wind: 5mph
Humidity: 82%   Direction: 150°SSE
Pressure: 30.27"   Gusts: NA
Location:  36.59°N, 92.37°W
Report Text: KBPK 281053Z AUTO 15004KT 8SM CLR M01/M04 A3027 RMK AO2 SLP256 T10111039
Loading
Personal Weather Stations






























Interactive Weather Map New forecast layout! Learn more

10-Day Weather Forecast

Advertisements
Track Severe Weather on mobile